createdAt,value
2022-11-24T00:01:31.449Z,80.19
2022-11-24T00:04:05.478Z,80.64
2022-11-24T00:06:37.293Z,79.56
2022-11-24T00:09:10.576Z,79.26
2022-11-24T00:11:42.149Z,78.81
2022-11-24T00:14:13.911Z,79.41
2022-11-24T00:16:46.802Z,77.24
2022-11-24T00:19:20.077Z,76.65
2022-11-24T00:21:52.341Z,76.13
2022-11-24T00:24:24.138Z,77.31
2022-11-24T00:26:56.730Z,76.59
2022-11-24T00:29:29.592Z,77.04
2022-11-24T00:32:02.375Z,76.78
2022-11-24T00:34:35.656Z,75.20
2022-11-24T00:37:08.770Z,76.52
2022-11-24T00:39:42.135Z,75.82
2022-11-24T00:42:14.952Z,75.25
2022-11-24T00:44:47.845Z,77.02
2022-11-24T00:47:21.336Z,77.13
2022-11-24T00:49:55.569Z,79.03
2022-11-24T00:52:28.573Z,77.56
2022-11-24T00:55:02.065Z,78.28
2022-11-24T00:57:35.502Z,79.03
2022-11-24T01:00:09.061Z,77.70
2022-11-24T01:02:42.152Z,78.44
2022-11-24T01:05:14.911Z,77.94
2022-11-24T01:07:47.843Z,78.75
2022-11-24T01:10:20.766Z,77.90
2022-11-24T01:12:54.008Z,77.82
2022-11-24T01:15:27.380Z,77.26
2022-11-24T01:18:00.040Z,77.94
2022-11-24T01:20:32.953Z,78.99
2022-11-24T01:23:06.378Z,76.63
2022-11-24T01:25:39.925Z,75.78
2022-11-24T01:28:14.213Z,75.98
2022-11-24T01:30:57.188Z,75.08
2022-11-24T01:33:30.778Z,77.14
2022-11-24T01:36:05.468Z,76.89
2022-11-24T01:38:38.280Z,77.48
2022-11-24T01:41:14.046Z,77.70
2022-11-24T01:43:47.047Z,78.10
2022-11-24T01:46:30.921Z,77.68
2022-11-24T01:49:18.852Z,76.46
2022-11-24T01:51:57.840Z,77.38
2022-11-24T01:54:41.459Z,77.31
2022-11-24T01:57:24.527Z,74.85
2022-11-24T02:00:07.406Z,74.99
2022-11-24T02:02:43.109Z,74.68
2022-11-24T02:05:22.627Z,76.66
2022-11-24T02:08:00.477Z,75.99
2022-11-24T02:10:33.442Z,75.97
2022-11-24T02:13:06.362Z,77.78
2022-11-24T02:15:39.294Z,75.73
2022-11-24T02:18:12.067Z,75.09
2022-11-24T02:20:44.901Z,75.28
2022-11-24T02:23:39.304Z,73.35
2022-11-24T02:26:30.715Z,72.30
2022-11-24T02:29:03.503Z,72.96
2022-11-24T02:31:36.494Z,74.24
2022-11-24T02:34:09.917Z,75.19
2022-11-24T02:36:42.987Z,74.92
2022-11-24T02:39:16.696Z,74.18
2022-11-24T02:42:05.135Z,73.69
2022-11-24T02:44:49.813Z,72.92
2022-11-24T02:47:23.463Z,73.83
2022-11-24T02:49:56.277Z,73.58
2022-11-24T02:52:29.026Z,74.75
2022-11-24T02:55:02.567Z,75.20
2022-11-24T02:57:36.046Z,74.73
2022-11-24T03:00:10.250Z,75.42
2022-11-24T03:02:43.140Z,75.09
2022-11-24T03:05:16.105Z,74.63
2022-11-24T03:07:49.909Z,75.40
2022-11-24T03:10:22.771Z,76.23
2022-11-24T03:12:55.546Z,75.70
2022-11-24T03:15:28.858Z,75.17
2022-11-24T03:18:02.135Z,75.59
2022-11-24T03:20:35.737Z,75.45
2022-11-24T03:23:08.898Z,74.72
2022-11-24T03:25:42.226Z,74.79
2022-11-24T03:28:14.966Z,73.88
2022-11-24T03:30:50.757Z,75.23
2022-11-24T03:33:24.404Z,74.38
2022-11-24T03:35:57.233Z,75.01
2022-11-24T03:38:30.184Z,74.94
2022-11-24T03:41:04.255Z,73.96
2022-11-24T03:43:43.153Z,74.67
2022-11-24T03:46:17.770Z,74.31
2022-11-24T03:48:51.180Z,73.32
2022-11-24T03:51:23.945Z,73.32
2022-11-24T03:53:56.653Z,73.94
2022-11-24T03:56:29.510Z,73.95
2022-11-24T03:59:02.311Z,74.51
2022-11-24T04:01:35.193Z,75.03
2022-11-24T04:04:11.343Z,75.66
2022-11-24T04:06:45.144Z,75.14
2022-11-24T04:09:18.235Z,75.35
2022-11-24T04:11:51.653Z,74.71
2022-11-24T04:14:25.047Z,74.68
2022-11-24T04:16:58.002Z,74.85
2022-11-24T04:19:30.932Z,73.97
2022-11-24T04:22:03.812Z,74.10
2022-11-24T04:24:37.277Z,73.13
2022-11-24T04:27:10.564Z,74.21
2022-11-24T04:29:43.586Z,74.02
2022-11-24T04:32:17.374Z,74.50
2022-11-24T04:34:50.593Z,76.04
2022-11-24T04:37:23.553Z,75.02
2022-11-24T04:39:56.502Z,75.82
2022-11-24T04:42:29.529Z,76.54
2022-11-24T04:45:02.744Z,76.73
2022-11-24T04:47:35.829Z,77.07
2022-11-24T04:50:09.634Z,76.54
2022-11-24T04:52:43.233Z,76.06
2022-11-24T04:55:16.284Z,76.47
2022-11-24T04:57:49.498Z,75.43
2022-11-24T05:00:22.790Z,74.79
2022-11-24T05:02:55.417Z,75.43
2022-11-24T05:05:28.388Z,75.80
2022-11-24T05:08:01.796Z,76.19
2022-11-24T05:10:35.617Z,76.49
2022-11-24T05:13:14.383Z,76.88
2022-11-24T05:15:47.330Z,77.23
2022-11-24T05:18:20.173Z,76.90
2022-11-24T05:20:53.052Z,76.65
2022-11-24T05:23:27.097Z,76.95
2022-11-24T05:26:01.333Z,76.47
2022-11-24T05:28:34.474Z,76.80
2022-11-24T05:31:07.971Z,76.91
2022-11-24T05:33:41.249Z,77.02
2022-11-24T05:36:14.109Z,76.60
2022-11-24T05:38:47.289Z,76.24
2022-11-24T05:41:20.393Z,76.29
2022-11-24T05:43:53.830Z,75.90
2022-11-24T05:46:26.829Z,75.33
2022-11-24T05:48:59.842Z,75.48
2022-11-24T05:51:32.574Z,75.79
2022-11-24T05:54:05.598Z,75.96
2022-11-24T05:56:38.717Z,75.91
2022-11-24T05:59:13.394Z,75.57
2022-11-24T06:01:46.327Z,74.40
2022-11-24T06:04:19.833Z,74.37
2022-11-24T06:06:53.609Z,74.79
2022-11-24T06:09:27.160Z,74.75
2022-11-24T06:11:59.994Z,74.70
2022-11-24T06:14:33.979Z,74.43
2022-11-24T06:17:08.126Z,75.20
2022-11-24T06:19:42.412Z,74.78
2022-11-24T06:22:15.480Z,74.72
2022-11-24T06:24:48.823Z,74.33
2022-11-24T06:27:22.797Z,74.56
2022-11-24T06:29:55.542Z,74.05
2022-11-24T06:32:28.773Z,74.76
2022-11-24T06:35:01.939Z,74.22
2022-11-24T06:37:36.346Z,74.54
2022-11-24T06:40:10.170Z,73.75
2022-11-24T06:42:49.408Z,74.60
2022-11-24T06:45:23.382Z,74.52
2022-11-24T06:47:56.608Z,74.51
2022-11-24T06:50:33.546Z,74.11
2022-11-24T06:53:07.397Z,74.43
2022-11-24T06:55:42.148Z,73.78
2022-11-24T06:58:14.998Z,74.11
2022-11-24T07:00:48.414Z,73.61
2022-11-24T07:03:23.746Z,72.68
2022-11-24T07:05:58.369Z,72.09
2022-11-24T07:08:31.599Z,71.95
2022-11-24T07:11:11.370Z,72.25
2022-11-24T07:13:46.396Z,73.03
2022-11-24T07:16:25.564Z,73.07
2022-11-24T07:18:59.722Z,73.12
2022-11-24T07:21:32.556Z,72.25
2022-11-24T07:24:05.990Z,72.61
2022-11-24T07:26:40.159Z,72.59
2022-11-24T07:29:21.112Z,71.80
2022-11-24T07:31:55.530Z,71.17
2022-11-24T07:34:29.738Z,70.50
2022-11-24T07:37:04.265Z,70.73
2022-11-24T07:39:38.176Z,70.39
2022-11-24T07:42:13.333Z,69.07
2022-11-24T07:44:46.596Z,69.57
2022-11-24T07:47:20.675Z,67.84
2022-11-24T07:49:54.803Z,66.19
2022-11-24T07:52:28.087Z,65.60
2022-11-24T07:55:01.242Z,59.27
2022-11-24T07:57:37.742Z,56.74
2022-11-24T08:00:13.500Z,49.19
2022-11-24T08:02:47.805Z,46.65
2022-11-24T08:05:22.341Z,43.69
2022-11-24T08:07:55.790Z,44.41
2022-11-24T08:10:28.680Z,44.50
2022-11-24T08:13:02.966Z,44.28
2022-11-24T08:15:36.005Z,43.23
2022-11-24T08:18:09.883Z,41.68
2022-11-24T08:20:43.257Z,41.68
2022-11-24T08:23:16.310Z,39.96
2022-11-24T08:25:55.607Z,37.95
2022-11-24T08:28:29.937Z,39.30
2022-11-24T08:31:13.261Z,36.91
2022-11-24T08:33:47.210Z,36.80
2022-11-24T08:36:21.674Z,37.97
2022-11-24T08:38:58.652Z,36.49
2022-11-24T08:41:33.084Z,46.36
2022-11-24T08:44:06.539Z,48.04
2022-11-24T08:46:40.498Z,51.37
2022-11-24T08:49:16.873Z,51.32
2022-11-24T08:51:50.980Z,55.36
2022-11-24T08:54:25.936Z,58.24
2022-11-24T08:57:00.262Z,58.52
2022-11-24T08:59:34.462Z,58.91
2022-11-24T09:02:12.390Z,57.26
2022-11-24T09:04:45.470Z,57.74
2022-11-24T09:07:19.962Z,58.10
2022-11-24T09:09:53.712Z,57.30
2022-11-24T09:12:27.961Z,57.60
2022-11-24T09:15:01.337Z,55.40
2022-11-24T09:17:34.798Z,56.18
2022-11-24T09:20:08.448Z,52.99
2022-11-24T09:22:42.836Z,52.14
2022-11-24T09:25:15.765Z,53.81
2022-11-24T09:27:51.125Z,45.91
2022-11-24T09:30:24.370Z,41.45
2022-11-24T09:32:57.781Z,47.33
2022-11-24T09:35:32.616Z,49.00
2022-11-24T09:38:06.028Z,48.48
2022-11-24T09:40:39.888Z,44.65
2022-11-24T09:43:45.827Z,48.32
2022-11-24T09:46:43.640Z,49.51
2022-11-24T09:49:42.459Z,46.93
2022-11-24T09:52:37.489Z,38.63
2022-11-24T09:55:37.027Z,49.24
2022-11-24T09:58:27.786Z,52.08
2022-11-24T10:01:29.308Z,53.01
2022-11-24T10:04:31.799Z,54.44
2022-11-24T10:07:35.579Z,55.59
2022-11-24T10:10:59.588Z,53.72
2022-11-24T10:14:36.546Z,47.09
2022-11-24T10:17:40.259Z,40.52
2022-11-24T10:20:35.886Z,42.74
2022-11-24T10:23:33.546Z,45.36
2022-11-24T10:26:34.096Z,46.23
2022-11-24T10:29:42.163Z,44.05
2022-11-24T10:32:35.286Z,46.54
2022-11-24T10:35:21.812Z,47.21
2022-11-24T10:38:20.173Z,48.76
2022-11-24T10:41:13.325Z,49.35
2022-11-24T10:43:46.661Z,47.08
2022-11-24T10:46:28.688Z,43.11
2022-11-24T10:49:05.090Z,40.25
2022-11-24T10:51:46.525Z,35.35
2022-11-24T10:54:23.417Z,33.44
2022-11-24T10:56:56.339Z,31.33
2022-11-24T10:59:37.556Z,29.93
2022-11-24T11:02:34.016Z,31.55
2022-11-24T11:05:31.860Z,35.21
2022-11-24T11:08:13.936Z,33.92
2022-11-24T11:11:08.269Z,33.15
2022-11-24T11:14:02.910Z,29.88
2022-11-24T11:16:57.337Z,33.31
2022-11-24T11:19:49.995Z,31.99
2022-11-24T11:22:33.017Z,33.17
2022-11-24T11:25:14.424Z,29.85
2022-11-24T11:27:48.653Z,30.88
2022-11-24T11:36:21.027Z,31.25
2022-11-24T11:38:54.890Z,29.45
2022-11-24T11:41:33.681Z,33.58
2022-11-24T11:44:23.534Z,33.71
2022-11-24T11:46:59.501Z,33.82
2022-11-24T11:49:38.385Z,38.48
2022-11-24T11:52:38.081Z,40.93
2022-11-24T11:55:50.053Z,36.80
2022-11-24T11:58:38.278Z,36.87
2022-11-24T12:01:39.535Z,41.97
2022-11-24T12:04:16.402Z,44.42
2022-11-24T12:07:22.461Z,46.23
2022-11-24T12:10:01.004Z,46.50
2022-11-24T12:13:28.975Z,38.16
2022-11-24T12:16:25.455Z,35.87
2022-11-24T12:19:14.048Z,33.99
2022-11-24T12:21:55.483Z,35.68
2022-11-24T12:24:50.903Z,35.82
2022-11-24T12:27:51.390Z,37.06
2022-11-24T12:30:25.488Z,43.42
2022-11-24T12:33:14.714Z,43.26
2022-11-24T12:36:10.656Z,36.69
2022-11-24T12:38:56.052Z,34.15
2022-11-24T12:42:18.181Z,31.19
2022-11-24T12:44:57.390Z,31.94
2022-11-24T12:47:53.115Z,32.47
2022-11-24T12:50:29.829Z,31.14
2022-11-24T12:53:18.877Z,28.63
2022-11-24T12:55:54.545Z,28.84
2022-11-24T12:58:50.837Z,27.99
2022-11-24T13:01:36.237Z,28.60
2022-11-24T13:04:30.921Z,30.83
2022-11-24T13:07:14.091Z,30.05
2022-11-24T13:10:40.433Z,29.86
2022-11-24T13:13:18.299Z,30.68
2022-11-24T13:16:28.537Z,32.39
2022-11-24T13:18:55.225Z,32.95
2022-11-24T13:21:28.351Z,34.44
2022-11-24T13:24:05.922Z,38.21
2022-11-24T13:26:42.117Z,37.37
2022-11-24T13:29:27.454Z,31.81
2022-11-24T13:32:03.201Z,30.39
2022-11-24T13:34:39.422Z,30.21
2022-11-24T13:37:31.868Z,29.90
2022-11-24T13:40:12.264Z,29.64
2022-11-24T13:42:54.788Z,32.36
2022-11-24T13:45:39.948Z,33.09
2022-11-24T13:48:19.453Z,33.94
2022-11-24T13:50:52.547Z,32.53
2022-11-24T13:53:40.985Z,31.48
2022-11-24T13:56:13.928Z,32.88
2022-11-24T13:59:00.434Z,34.19
2022-11-24T14:01:37.115Z,39.78
2022-11-24T14:04:33.288Z,43.88
2022-11-24T14:07:14.940Z,47.84
2022-11-24T14:09:52.090Z,48.50
2022-11-24T14:12:26.623Z,49.75
2022-11-24T14:15:23.675Z,52.54
2022-11-24T14:17:56.494Z,52.78
2022-11-24T14:20:30.974Z,53.72
2022-11-24T14:23:10.098Z,55.74
2022-11-24T14:25:53.539Z,58.55
2022-11-24T14:28:29.203Z,59.28
2022-11-24T14:31:20.803Z,58.81
2022-11-24T14:34:16.667Z,58.55
2022-11-24T14:36:52.285Z,59.95
2022-11-24T14:39:27.497Z,59.49
2022-11-24T14:42:04.916Z,58.76
2022-11-24T14:44:40.639Z,59.70
2022-11-24T14:47:30.550Z,60.19
2022-11-24T14:50:15.323Z,58.65
2022-11-24T14:52:57.775Z,57.76
2022-11-24T14:55:33.505Z,58.86
2022-11-24T14:58:31.871Z,56.70
2022-11-24T15:01:18.638Z,57.22
2022-11-24T15:07:28.392Z,58.71
2022-11-24T15:10:07.057Z,58.05
2022-11-24T15:12:51.465Z,57.31
2022-11-24T15:15:35.505Z,56.77
2022-11-24T15:18:28.965Z,56.25
2022-11-24T15:21:03.606Z,59.41
2022-11-24T15:23:37.484Z,56.82
2022-11-24T15:26:11.778Z,57.04
2022-11-24T15:28:48.394Z,57.91
2022-11-24T15:31:24.738Z,57.14
2022-11-24T15:33:59.136Z,56.62
2022-11-24T15:36:34.679Z,58.00
2022-11-24T15:39:07.941Z,58.72
2022-11-24T15:41:45.269Z,57.68
2022-11-24T15:44:19.722Z,59.48
2022-11-24T15:46:57.126Z,60.48
2022-11-24T15:49:30.997Z,59.45
2022-11-24T15:52:05.810Z,59.19
2022-11-24T15:54:40.840Z,60.75
2022-11-24T15:57:15.802Z,59.79
2022-11-24T15:59:49.473Z,60.38
2022-11-24T16:02:24.784Z,60.39
2022-11-24T16:04:58.303Z,62.31
2022-11-24T16:07:32.702Z,61.26
2022-11-24T16:10:36.056Z,60.32
2022-11-24T16:13:10.205Z,60.91
2022-11-24T16:15:45.806Z,61.22
2022-11-24T16:18:20.187Z,60.72
2022-11-24T16:20:58.187Z,61.32
2022-11-24T16:23:32.282Z,61.72
2022-11-24T16:26:06.943Z,61.68
2022-11-24T16:28:41.383Z,61.33
2022-11-24T16:31:16.773Z,61.53
2022-11-24T16:33:50.506Z,62.42
2022-11-24T16:36:25.587Z,62.15
2022-11-24T16:38:59.959Z,62.27
2022-11-24T16:41:34.040Z,62.26
2022-11-24T16:44:07.813Z,62.50
2022-11-24T16:46:43.147Z,62.00
2022-11-24T16:49:18.605Z,62.43
2022-11-24T16:51:55.040Z,62.66
2022-11-24T16:54:28.479Z,62.05
2022-11-24T16:57:14.506Z,62.83
2022-11-24T16:59:48.650Z,62.73
2022-11-24T17:02:24.283Z,62.84
2022-11-24T17:04:58.846Z,62.94
2022-11-24T17:07:40.691Z,63.34
2022-11-24T17:10:15.499Z,63.51
2022-11-24T17:12:59.404Z,63.60
2022-11-24T17:15:48.414Z,63.58
2022-11-24T17:18:45.069Z,64.17
2022-11-24T17:21:33.786Z,63.23
2022-11-24T17:24:26.261Z,63.47
2022-11-24T17:27:18.716Z,64.29
2022-11-24T17:30:11.589Z,64.28
2022-11-24T17:33:04.165Z,64.19
2022-11-24T17:36:01.492Z,64.30
2022-11-24T17:38:53.944Z,63.17
2022-11-24T17:41:46.429Z,63.78
2022-11-24T17:44:38.885Z,64.04
2022-11-24T17:47:31.377Z,64.60
2022-11-24T17:50:26.009Z,64.19
2022-11-24T17:53:19.102Z,64.70
2022-11-24T17:56:13.892Z,64.00
2022-11-24T17:59:06.352Z,65.05
2022-11-24T18:01:58.861Z,64.94
2022-11-24T18:04:51.349Z,64.58
2022-11-24T18:07:43.826Z,64.64
2022-11-24T18:10:36.303Z,65.05
2022-11-24T18:13:54.816Z,65.69
2022-11-24T18:16:42.712Z,65.30
2022-11-24T18:19:30.879Z,63.77
2022-11-24T18:22:05.232Z,65.17
2022-11-24T18:24:38.287Z,64.50
2022-11-24T18:27:11.596Z,64.19
2022-11-24T18:29:44.503Z,63.81
2022-11-24T18:32:17.428Z,63.48
2022-11-24T18:34:50.685Z,64.75
2022-11-24T18:37:23.506Z,63.92
2022-11-24T18:39:56.468Z,63.42
2022-11-24T18:42:29.673Z,64.13
2022-11-24T18:45:02.484Z,63.96
2022-11-24T18:47:35.407Z,63.13
2022-11-24T18:50:08.869Z,62.82
2022-11-24T18:52:43.049Z,63.80
2022-11-24T18:55:16.203Z,63.54
2022-11-24T18:57:49.431Z,62.53
2022-11-24T19:00:22.575Z,63.43
2022-11-24T19:06:23.682Z,64.64
2022-11-24T19:08:56.867Z,64.23
2022-11-24T19:11:36.033Z,63.56
2022-11-24T19:14:16.485Z,63.87
2022-11-24T19:16:51.323Z,64.21
2022-11-24T19:19:24.534Z,64.42
2022-11-24T19:21:58.358Z,64.42
2022-11-24T19:24:31.249Z,64.57
2022-11-24T19:27:04.131Z,64.76
2022-11-24T19:29:42.849Z,64.88
2022-11-24T19:32:17.653Z,64.13
2022-11-24T19:34:51.227Z,64.16
2022-11-24T19:37:24.293Z,64.82
2022-11-24T19:39:57.523Z,65.41
2022-11-24T19:42:31.642Z,65.18
2022-11-24T19:45:05.083Z,64.63
2022-11-24T19:47:38.739Z,64.76
2022-11-24T19:50:16.024Z,64.78
2022-11-24T19:52:49.632Z,64.08
2022-11-24T19:55:23.738Z,64.59
2022-11-24T19:57:57.815Z,64.87
2022-11-24T20:00:32.175Z,65.09
2022-11-24T20:03:05.532Z,65.07
2022-11-24T20:05:40.170Z,64.86
2022-11-24T20:08:14.412Z,64.64
2022-11-24T20:10:48.485Z,64.90
2022-11-24T20:13:21.842Z,65.41
2022-11-24T20:15:56.619Z,65.24
2022-11-24T20:18:30.965Z,64.94
2022-11-24T20:21:08.227Z,64.90
2022-11-24T20:23:42.567Z,64.84
2022-11-24T20:26:20.026Z,64.96
2022-11-24T20:28:56.990Z,64.88
2022-11-24T20:31:40.407Z,65.17
2022-11-24T20:34:14.447Z,64.67
2022-11-24T20:36:47.822Z,65.05
2022-11-24T20:39:24.861Z,65.72
2022-11-24T20:41:57.814Z,64.94
2022-11-24T20:44:31.651Z,65.56
2022-11-24T20:47:05.293Z,64.86
2022-11-24T20:49:38.544Z,65.88
2022-11-24T20:52:12.881Z,66.22
2022-11-24T20:54:45.819Z,65.86
2022-11-24T20:57:18.664Z,65.54
2022-11-24T20:59:53.611Z,64.58
2022-11-24T21:02:26.748Z,64.98
2022-11-24T21:05:00.127Z,64.72
2022-11-24T21:07:33.203Z,64.66
2022-11-24T21:10:07.082Z,64.27
2022-11-24T21:12:41.033Z,64.84
2022-11-24T21:15:14.949Z,64.83
2022-11-24T21:17:48.713Z,63.97
2022-11-24T21:20:25.716Z,64.28
2022-11-24T21:22:59.063Z,64.73
2022-11-24T21:25:33.698Z,64.65
2022-11-24T21:28:07.844Z,64.48
2022-11-24T21:30:41.536Z,64.25
2022-11-24T21:33:15.744Z,63.90
2022-11-24T21:35:53.001Z,64.34
2022-11-24T21:38:30.021Z,64.77
2022-11-24T21:41:06.144Z,63.94
2022-11-24T21:43:39.923Z,65.11
2022-11-24T21:46:16.306Z,64.55
2022-11-24T21:48:50.424Z,64.09
2022-11-24T21:51:24.208Z,64.02
2022-11-24T21:54:03.202Z,64.34
2022-11-24T21:56:36.962Z,64.29
2022-11-24T21:59:11.169Z,64.16
2022-11-24T22:01:46.403Z,63.80
2022-11-24T22:04:31.258Z,63.81
2022-11-24T22:07:09.885Z,63.95
2022-11-24T22:09:50.706Z,64.57
2022-11-24T22:12:43.197Z,63.76
2022-11-24T22:15:36.656Z,63.25
2022-11-24T22:18:34.560Z,64.09
2022-11-24T22:21:27.041Z,63.95
2022-11-24T22:24:22.995Z,64.00
2022-11-24T22:27:19.463Z,64.76
2022-11-24T22:30:12.086Z,64.27
2022-11-24T22:33:04.537Z,64.07
2022-11-24T22:35:58.224Z,64.36
2022-11-24T22:39:12.171Z,64.63
2022-11-24T22:42:04.732Z,64.60
2022-11-24T22:44:57.373Z,64.64
2022-11-24T22:47:54.036Z,64.59
2022-11-24T22:50:46.592Z,65.10
2022-11-24T22:53:40.085Z,64.12
2022-11-24T22:56:33.750Z,64.96
2022-11-24T22:59:26.185Z,64.75
2022-11-24T23:02:18.681Z,64.88
2022-11-24T23:05:11.149Z,64.03
2022-11-24T23:08:03.792Z,64.25
2022-11-24T23:11:06.255Z,64.83
2022-11-24T23:13:59.269Z,64.71
2022-11-24T23:16:54.064Z,64.89
2022-11-24T23:19:46.572Z,66.69
2022-11-24T23:22:39.037Z,64.59
2022-11-24T23:25:33.901Z,66.23
2022-11-24T23:28:26.393Z,66.62
2022-11-24T23:31:23.060Z,66.36
2022-11-24T23:34:15.534Z,67.41
2022-11-24T23:37:07.990Z,66.38
2022-11-24T23:40:00.472Z,65.51
2022-11-24T23:42:52.971Z,65.36
2022-11-24T23:45:45.494Z,65.14
2022-11-24T23:48:39.033Z,64.99
2022-11-24T23:51:33.252Z,64.87
2022-11-24T23:54:25.721Z,65.43
2022-11-24T23:57:18.175Z,64.91
